KTDZ/TDZ METAR and TAF weather

Enter ICAO airport designator
Station Type Date Time Source
KTDZ METAR 2022/06/25 22:53 UTC NOAA

KTDZ 252253Z AUTO 15006KT 10SM CLR 32/10 A2999 RMK AO2 SLP148 T03170100 $


Station Type Date Time Source
KTDZ Decoded METAR 2022/06/25 22:53 UTC NOAA

TOLEDO METCALF FIELD, OH, United States (KTDZ) 41-34N 83-29W 189M
Jun 25, 2022 - 06:53 PM EDT / 2022.06.25 2253 UTC
Wind: from the SSE (150 degrees) at 7 MPH (6 KT):0
Visibility: 10 mile(s):0
Sky conditions: clear
Temperature: 89.1 F (31.7 C)
Dew Point: 50.0 F (10.0 C)
Relative Humidity: 26%
Pressure (altimeter): 29.99 in. Hg (1015 hPa)
ob: KTDZ 252253Z AUTO 15006KT 10SM CLR 32/10 A2999 RMK AO2 SLP148 T03170100
cycle: 23

Station Type Date Time Source
KTDZ TAF UTC NOAA

Error!

Example: see airport list